This is the latest recevied weather packets stored in our database for station/object K7YVO. If no packets are shown the sender has not sent any weather packets the latest 10 day(s).
| Time | Temp. | Humidity | Pressure | Rain* | Wind** | Luminosity | Snow |
|---|---|---|---|---|---|---|---|
| 1777488573 | 13.89° C | 61% | 1024.9 hPa | 0 mm | - | 686 W/m² | - |
| 1777488271 | 13.89° C | 59% | 1025.1 hPa | 0 mm | - | 681 W/m² | - |
| 1777487969 | 14.44° C | 57% | 1025.1 hPa | 0 mm | - | 674 W/m² | - |
| 1777487666 | 13.33° C | 60% | 1025.1 hPa | 0 mm | - | 666 W/m² | - |
| 1777487363 | 13.33° C | 61% | 1025.1 hPa | 0 mm | - | 659 W/m² | - |
| 1777487061 | 12.78° C | 61% | 1025.2 hPa | 0 mm | - | 653 W/m² | - |
| 1777486756 | 12.78° C | 61% | 1025.1 hPa | 0 mm | - | 646 W/m² | - |
| 1777486455 | 12.22° C | 62% | 1025.3 hPa | 0 mm | - | 636 W/m² | - |
| 1777486152 | 12.78° C | 62% | 1025.1 hPa | 0 mm | - | 627 W/m² | - |
| 1777485849 | 12.22° C | 63% | 1025.5 hPa | 0 mm | - | 618 W/m² | - |
| 1777485544 | 11.67° C | 65% | 1025.4 hPa | 0 mm | - | 607 W/m² | - |
| 1777485240 | 11.67° C | 64% | 1025.4 hPa | 0 mm | - | 603 W/m² | - |
| 1777484937 | 11.67° C | 64% | 1025.4 hPa | 0 mm | - | 588 W/m² | - |
| 1777484634 | 11.67° C | 67% | 1025.4 hPa | 0 mm | - | 580 W/m² | - |
| 1777484330 | 11.67° C | 64% | 1025.4 hPa | 0 mm | - | 570 W/m² | - |
| 1777484026 | 11.11° C | 66% | 1025.5 hPa | 0 mm | - | 560 W/m² | - |
| 1777483723 | 11.11° C | 66% | 1025.4 hPa | 0 mm | - | 548 W/m² | - |
| 1777483418 | 11.11° C | 67% | 1025.5 hPa | 0 mm | - | 537 W/m² | - |
| 1777483113 | 10.56° C | 68% | 1025.4 hPa | 0 mm | - | 50 W/m² | - |
| 1777482811 | 10.56° C | 68% | 1025.4 hPa | 0 mm | - | 48 W/m² | - |
| 1777482506 | 10.56° C | 68% | 1025.5 hPa | 0 mm | - | 47 W/m² | - |
| 1777482204 | 10.56° C | 68% | 1025.5 hPa | 0 mm | - | 46 W/m² | - |
| 1777481901 | 10° C | 69% | 1025.7 hPa | 0 mm | - | 45 W/m² | - |
| 1777481599 | 10° C | 70% | 1025.5 hPa | 0 mm | - | 44 W/m² | - |
| 1777481296 | 9.44° C | 71% | 1025.7 hPa | 0 mm | - | 43 W/m² | - |
* Rain latest hour (hover to see other rain measurements)
** Current wind speed in m/s (hover to see current wind gust speed)